Latest Weather Observations for Flinders Reef

IDQ60801

Issued at 3:02 am EST Thursday 23 February 2017 (issued every 30 minutes, with the page automatically refreshed every 10 minutes)

About weather observations | Map of weather stations | Latest weather observations for QLD | Other Formats
Station Details ID: 200783 Name: FLINDERS REEF Lat: -17.72 Lon: 148.45 Height: 2.6 m
Data from the previous 72 hours. | See also: Recent months at Flinders Reef
Date/Time
EST
Temp
°C
App
Temp
°C
Dew
Point
°C
Rel
Hum
%
Delta-T
°C
Wind Press
QNH
hPa
Press
MSL
hPa
Rain since
9am
mm
Dir  Spd
km/h
Gust
km/h
Spd
kts
Gust
kts
23/03:00am 26.7 - - - - NE 7 9 4 5 1011.2 - -
23/02:30am 26.7 - - - - NE 11 15 6 8 1011.5 - -
23/02:24am 26.7 - - - - NE 13 - 7 - - 1011.4 -
23/02:00am 26.6 - - - - NE 24 28 13 15 1011.7 - -
23/01:30am 26.2 - - - - NE 24 33 13 18 1012.3 - -
23/01:24am 27.2 - - - - NNE 11 - 6 - - 1012.2 -
23/01:00am 26.9 - - - - NNE 13 15 7 8 1012.6 - -
23/12:30am 26.4 - - - - N 17 19 9 10 1013.0 - -
23/12:24am 26.3 - - - - N 17 - 9 - - 1013.0 -
23/12:00am 26.4 - - - - NNE 22 26 12 14 1013.5 - -
 
Date/Time
EST
Temp
°C
App
Temp
°C
Dew
Point
°C
Rel
Hum
%
Delta-T
°C
Wind Press
QNH
hPa
Press
MSL
hPa
Rain since
9am
mm
Dir  Spd
km/h
Gust
km/h
Spd
kts
Gust
kts
22/11:30pm 26.0 - - - - ENE 17 20 9 11 1013.4 - -
22/11:24pm 26.0 - - - - ENE 17 - 9 - - 1013.4 -
22/11:00pm 25.3 - - - - NE 17 19 9 10 1013.9 - -
22/10:30pm 25.2 - - - - NE 15 19 8 10 1014.1 - -
22/10:27pm 25.0 - - - - NE 15 20 8 11 1014.0 - -
22/10:24pm 24.8 - - - - NE 17 - 9 - - 1013.9 -
22/10:00pm 25.5 - - - - ENE 41 52 22 28 1013.6 - -
22/09:48pm 28.0 - - - - ENE 39 43 21 23 1013.2 - -
22/09:30pm 28.9 - - - - ESE 22 26 12 14 1013.0 - -
22/09:24pm 28.6 - - - - ESE 24 - 13 - - 1012.8 -
22/09:00pm 28.9 - - - - ESE 28 41 15 22 1012.6 - -
22/08:30pm 28.9 - - - - ESE 32 37 17 20 1012.1 - -
22/08:24pm 28.9 - - - - ESE 32 - 17 - - 1012.0 -
22/08:00pm 29.0 - - - - ESE 33 39 18 21 1011.8 - -
22/07:30pm 29.2 - - - - ESE 30 33 16 18 1011.6 - -
22/07:24pm 29.2 - - - - ESE 32 - 17 - - 1011.4 -
22/07:00pm 29.2 - - - - ESE 32 37 17 20 1011.2 - -
22/06:30pm 29.2 - - - - ESE 32 37 17 20 1010.7 - -
22/06:24pm 29.4 - - - - ESE 32 - 17 - - 1010.6 -
22/06:00pm 29.2 - - - - ESE 32 37 17 20 1010.5 - -
22/05:30pm 29.3 - - - - SE 30 35 16 19 1010.3 - -
22/05:24pm 29.1 - - - - SE 32 - 17 - - 1010.2 -
22/05:00pm 29.0 - - - - SE 32 35 17 19 1010.1 - -
22/04:30pm 29.1 - - - - SE 30 33 16 18 1010.1 - -
22/04:24pm 29.1 - - - - SE 32 - 17 - - 1010.0 -
22/04:00pm 28.9 - - - - SE 32 35 17 19 1010.1 - -
22/03:30pm 29.0 - - - - SE 28 32 15 17 1010.3 - -
22/03:24pm 28.9 - - - - SE 28 - 15 - - 1010.3 -
22/03:00pm 29.4 - - - - SE 28 33 15 18 1010.6 - -
22/02:30pm 29.0 - - - - SE 28 33 15 18 1010.9 - -
22/02:24pm 28.9 - - - - SE 30 - 16 - - 1010.8 -
22/02:00pm 29.0 - - - - SE 30 33 16 18 1011.1 - -
22/01:30pm 28.8 - - - - SE 28 32 15 17 1011.3 - -
22/01:24pm 29.0 - - - - SE 28 - 15 - - 1011.3 -
22/01:00pm 28.9 - - - - SE 24 28 13 15 1011.6 - -
22/12:30pm 29.0 - - - - SE 22 26 12 14 1012.0 - -
22/12:24pm 29.2 - - - - SE 22 - 12 - - 1011.9 -
22/12:00pm 29.1 - - - - SSE 22 26 12 14 1012.3 - -
22/11:30am 28.9 - - - - SE 24 30 13 16 1012.3 - -
22/11:24am 28.9 - - - - SE 24 - 13 - - 1012.3 -
22/11:00am 29.1 - - - - SE 24 28 13 15 1012.5 - -
22/10:30am 29.0 - - - - SE 26 30 14 16 1012.7 - -
22/10:24am 29.0 - - - - SE 26 - 14 - - 1012.7 -
22/10:00am 29.1 - - - - SE 26 30 14 16 1013.0 - -
22/09:30am 29.0 - - - - SE 24 28 13 15 1013.2 - -
22/09:24am 28.8 - - - - SE 26 - 14 - - 1013.0 -
22/09:00am 28.9 - - - - SE 26 30 14 16 1013.0 - -
22/08:30am 28.8 - - - - SE 24 28 13 15 1012.8 - -
22/08:24am 28.8 - - - - SE 22 - 12 - - 1012.7 -
22/08:00am 28.6 - - - - SSE 20 24 11 13 1012.6 - -
22/07:30am 28.7 - - - - SSE 19 22 10 12 1012.4 - -
22/07:24am 28.7 - - - - SSE 20 - 11 - - 1012.3 -
22/07:00am 28.5 - - - - SE 20 24 11 13 1012.2 - -
22/06:30am 28.7 - - - - SE 19 22 10 12 1011.9 - -
22/06:24am 28.5 - - - - SE 19 - 10 - - 1011.8 -
22/06:00am 28.4 - - - - ESE 20 24 11 13 1011.8 - -
22/05:30am 27.8 - - - - ESE 9 11 5 6 1011.7 - -
22/05:24am 27.7 - - - - ESE 9 - 5 - - 1011.6 -
22/05:00am 26.6 - - - - ESE 11 15 6 8 1011.8 - -
22/04:39am 27.6 - - - - ESE 35 39 19 21 1011.5 - -
22/04:30am 28.6 - - - - ESE 15 17 8 9 1011.5 - -
22/04:24am 28.7 - - - - ESE 15 - 8 - - 1011.4 -
22/04:00am 28.7 - - - - ESE 17 20 9 11 1011.4 - -
22/03:30am 28.6 - - - - ESE 19 20 10 11 1011.3 - -
22/03:24am 28.5 - - - - ESE 20 - 11 - - 1011.2 -
22/03:00am 28.6 - - - - E 20 24 11 13 1011.3 - -
22/02:30am 28.7 - - - - E 17 20 9 11 1011.5 - -
22/02:24am 28.7 - - - - E 15 - 8 - - 1011.5 -
22/02:00am 28.7 - - - - E 15 19 8 10 1011.8 - -
22/01:30am 28.7 - - - - E 15 17 8 9 1012.2 - -
22/01:24am 28.9 - - - - ENE 15 - 8 - - 1012.1 -
22/01:00am 28.8 - - - - ENE 13 15 7 8 1012.7 - -
22/12:30am 29.0 - - - - ENE 15 20 8 11 1013.0 - -
22/12:24am 28.8 - - - - ENE 17 - 9 - - 1012.9 -
22/12:00am 28.9 - - - - E 15 19 8 10 1013.3 - -
 
Date/Time
EST
Temp
°C
App
Temp
°C
Dew
Point
°C
Rel
Hum
%
Delta-T
°C
Wind Press
QNH
hPa
Press
MSL
hPa
Rain since
9am
mm
Dir  Spd
km/h
Gust
km/h
Spd
kts
Gust
kts
21/11:30pm 28.9 - - - - E 19 22 10 12 1013.7 - -
21/11:24pm 29.0 - - - - E 19 - 10 - - 1013.7 -
21/11:00pm 28.9 - - - - E 19 22 10 12 1013.9 - -
21/10:30pm 29.0 - - - - E 20 24 11 13 1013.9 - -
21/10:24pm 29.2 - - - - E 20 - 11 - - 1013.8 -
21/10:00pm 28.9 - - - - E 17 20 9 11 1014.0 - -
21/09:30pm 28.9 - - - - E 19 22 10 12 1013.9 - -
21/09:24pm 29.1 - - - - E 20 - 11 - - 1013.7 -
21/09:00pm 29.1 - - - - E 24 28 13 15 1013.4 - -
21/08:30pm 29.0 - - - - E 22 28 12 15 1013.1 - -
21/08:24pm 29.1 - - - - E 20 - 11 - - 1013.0 -
21/08:00pm 29.0 - - - - E 22 28 12 15 1012.8 - -
21/07:30pm 29.1 - - - - E 24 28 13 15 1012.5 - -
21/07:24pm 29.1 - - - - E 24 - 13 - - 1012.4 -
21/07:00pm 28.8 - - - - E 22 26 12 14 1012.2 - -
21/06:30pm 28.9 - - - - E 19 24 10 13 1011.9 - -
21/06:24pm 28.9 - - - - E 19 - 10 - - 1011.7 -
21/06:00pm 29.1 - - - - E 19 24 10 13 1011.4 - -
21/05:30pm 29.3 - - - - E 19 20 10 11 1011.2 - -
21/05:24pm 29.1 - - - - E 19 - 10 - - 1011.1 -
21/05:00pm 29.2 - - - - E 19 24 10 13 1011.0 - -
21/04:30pm 29.2 - - - - E 19 22 10 12 1010.9 - -
21/04:24pm 29.0 - - - - E 17 - 9 - - 1010.8 -
21/04:00pm 29.3 - - - - E 19 22 10 12 1011.0 - -
21/03:30pm 29.3 - - - - ESE 17 20 9 11 1011.2 - -
21/03:24pm 29.0 - - - - ESE 17 - 9 - - 1011.1 -
21/03:00pm 29.5 - - - - E 17 20 9 11 1011.3 - -
21/02:30pm 29.1 - - - - E 17 20 9 11 1011.5 - -
21/02:24pm 29.2 - - - - E 19 - 10 - - 1011.4 -
21/02:00pm 29.2 - - - - E 15 20 8 11 1011.6 - -
21/01:30pm 29.4 - - - - E 17 20 9 11 1011.9 - -
21/01:24pm 29.2 - - - - E 17 - 9 - - 1011.8 -
21/01:00pm 29.5 - - - - E 17 19 9 10 1012.1 - -
21/12:30pm 29.9 - - - - E 17 20 9 11 1012.4 - -
21/12:24pm 29.9 - - - - E 17 - 9 - - 1012.4 -
21/12:00pm 30.3 - - - - E 13 17 7 9 1012.9 - -
21/11:30am 30.3 - - - - E 13 19 7 10 1013.1 - -
21/11:24am 29.9 - - - - E 13 - 7 - - 1013.0 -
21/11:00am 30.5 - - - - E 11 15 6 8 1013.2 - -
21/10:30am 30.1 - - - - E 13 17 7 9 1013.4 - -
21/10:24am 30.2 - - - - E 13 - 7 - - 1013.3 -
21/10:00am 30.0 - - - - ESE 11 17 6 9 1013.4 - -
21/09:30am 30.1 - - - - ENE 13 17 7 9 1013.4 - -
21/09:24am 30.2 - - - - ENE 11 - 6 - - 1013.3 -
21/09:00am 30.0 - - - - ENE 13 15 7 8 1013.2 - -
21/08:30am 29.9 - - - - ENE 13 15 7 8 1012.7 - -
21/08:24am 29.7 - - - - ENE 13 - 7 - - 1012.6 -
21/08:00am 29.6 - - - - ENE 13 20 7 11 1012.3 - -
21/07:30am 28.9 - - - - E 17 20 9 11 1011.9 - -
21/07:24am 29.0 - - - - E 17 - 9 - - 1011.8 -
21/07:00am 28.7 - - - - E 15 19 8 10 1011.8 - -
21/06:30am 28.4 - - - - ENE 13 17 7 9 1011.6 - -
21/06:24am 28.4 - - - - ENE 15 - 8 - - 1011.4 -
21/06:00am 28.3 - - - - ENE 11 15 6 8 1011.4 - -
21/05:30am 28.3 - - - - ENE 15 17 8 9 1011.2 - -
21/05:24am 28.3 - - - - NE 13 - 7 - - 1011.0 -
21/05:00am 28.2 - - - - NNE 9 15 5 8 1011.0 - -
21/04:30am 28.3 - - - - NNE 13 15 7 8 1010.8 - -
21/04:24am 28.2 - - - - NNE 11 - 6 - - 1010.7 -
21/04:00am 28.2 - - - - NNE 9 11 5 6 1010.5 - -
21/03:30am 28.2 - - - - NNE 7 9 4 5 1010.3 - -
21/03:24am 28.3 - - - - NNE 7 - 4 - - 1010.2 -
21/03:00am 28.3 - - - - NNE 7 9 4 5 1010.3 - -
21/02:30am 28.3 - - - - NNE 9 11 5 6 1010.3 - -
21/02:24am 28.3 - - - - NNE 7 - 4 - - 1010.3 -
21/02:00am 28.4 - - - - NNE 7 9 4 5 1010.5 - -
21/01:30am 28.4 - - - - NNE 7 9 4 5 1010.8 - -
21/01:24am 28.4 - - - - NNE 7 - 4 - - 1010.7 -
21/01:00am 28.5 - - - - NNE 9 11 5 6 1011.1 - -
21/12:30am 28.5 - - - - NNE 11 13 6 7 1011.1 - -
21/12:24am 28.4 - - - - NNE 11 - 6 - - 1011.0 -
21/12:00am 28.5 - - - - NNE 11 13 6 7 1011.1 - -
 
Date/Time
EST
Temp
°C
App
Temp
°C
Dew
Point
°C
Rel
Hum
%
Delta-T
°C
Wind Press
QNH
hPa
Press
MSL
hPa
Rain since
9am
mm
Dir  Spd
km/h
Gust
km/h
Spd
kts
Gust
kts
20/11:30pm 28.6 - - - - NNE 11 13 6 7 1011.5 - -
20/11:24pm 28.6 - - - - NNE 9 - 5 - - 1011.4 -
20/11:00pm 28.6 - - - - NNE 11 13 6 7 1011.7 - -
20/10:30pm 28.6 - - - - NNE 9 11 5 6 1011.9 - -
20/10:24pm 28.6 - - - - NNE 9 - 5 - - 1011.8 -
20/10:00pm 28.7 - - - - NNE 9 11 5 6 1011.9 - -
20/09:30pm 28.6 - - - - NNE 7 9 4 5 1011.9 - -
20/09:24pm 28.6 - - - - NNE 7 - 4 - - 1011.8 -
20/09:00pm 28.6 - - - - NNE 7 9 4 5 1011.6 - -
20/08:30pm 28.7 - - - - NNE 7 9 4 5 1011.1 - -
20/08:24pm 28.6 - - - - NNE 6 - 3 - - 1011.0 -
20/08:00pm 28.6 - - - - NNE 6 9 3 5 1011.0 - -
20/07:30pm 28.7 - - - - NE 2 6 1 3 1010.6 - -
20/07:24pm 28.6 - - - - NE 6 - 3 - - 1010.4 -
20/07:00pm 28.9 - - - - CALM 0 4 0 2 1010.2 - -
20/06:30pm 29.3 - - - - CALM 0 0 0 0 1009.9 - -
20/06:24pm 29.7 - - - - CALM 0 - 0 - - 1009.8 -
20/06:00pm 30.8 - - - - CALM 0 6 0 3 1009.8 - -
20/05:30pm 31.6 - - - - NNE 6 7 3 4 1009.3 - -
20/05:24pm 31.3 - - - - N 6 - 3 - - 1009.1 -
20/05:00pm 31.1 - - - - N 7 11 4 6 1008.9 - -
20/04:30pm 30.5 - - - - NNW 7 11 4 6 1008.5 - -
20/04:24pm 30.4 - - - - NNW 9 - 5 - - 1008.4 -
20/04:00pm 30.2 - - - - NNW 11 11 6 6 1008.5 - -
20/03:30pm 29.7 - - - - N 11 15 6 8 1008.6 - -
20/03:24pm 29.3 - - - - N 11 - 6 - - 1008.6 -
20/03:00pm 29.5 - - - - N 11 15 6 8 1009.0 - -
20/02:30pm 29.6 - - - - NNW 11 13 6 7 1008.9 - -
20/02:24pm 29.4 - - - - NNW 11 - 6 - - 1008.8 -
20/02:00pm 29.4 - - - - NNW 13 17 7 9 1009.1 - -
20/01:30pm 28.9 - - - - NNW 13 17 7 9 1009.2 - -
20/01:24pm 29.2 - - - - NNW 13 - 7 - - 1009.2 -
20/01:00pm 28.8 - - - - N 15 19 8 10 1009.6 - -
20/12:30pm 29.3 - - - - N 17 19 9 10 1009.8 - -
20/12:24pm 28.9 - - - - N 17 - 9 - - 1009.7 -
20/12:00pm 29.1 - - - - N 17 20 9 11 1010.1 - -
20/11:30am 29.2 - - - - N 17 20 9 11 1010.2 - -
20/11:24am 29.3 - - - - N 17 - 9 - - 1010.2 -
20/11:00am 29.1 - - - - N 19 22 10 12 1010.3 - -
20/10:30am 29.3 - - - - N 17 20 9 11 1010.5 - -
20/10:24am 29.1 - - - - N 17 - 9 - - 1010.3 -
20/10:00am 29.2 - - - - N 17 20 9 11 1010.4 - -
20/09:30am 29.2 - - - - NE 13 17 7 9 1010.5 - -
20/09:24am 29.0 - - - - NE 13 - 7 - - 1010.4 -
20/09:00am 28.6 - - - - NNE 13 15 7 8 1010.5 - -
20/08:30am 28.9 - - - - NNE 11 13 6 7 1010.4 - -
20/08:24am 29.0 - - - - NNE 11 - 6 - - 1010.3 -
20/08:00am 28.6 - - - - CALM 0 4 0 2 1010.1 - -
20/07:30am 28.3 - - - - CALM 0 2 0 1 1009.9 - -
20/07:24am 28.3 - - - - CALM 0 - 0 - - 1009.8 -
20/07:00am 28.3 - - - - CALM 0 4 0 2 1009.8 - -
20/06:30am 28.0 - - - - N 6 9 3 5 1009.6 - -
20/06:24am 28.0 - - - - N 7 - 4 - - 1009.4 -
20/06:00am 27.8 - - - - N 6 9 3 5 1009.2 - -
20/05:30am 27.7 - - - - CALM 0 2 0 1 1009.0 - -
20/05:24am 27.7 - - - - CALM 0 - 0 - - 1008.9 -
20/05:00am 27.8 - - - - N 4 7 2 4 1008.8 - -
20/04:30am 27.8 - - - - N 6 7 3 4 1008.6 - -
20/04:24am 27.8 - - - - N 6 - 3 - - 1008.5 -
20/04:00am 27.8 - - - - CALM 0 4 0 2 1008.5 - -
20/03:30am 27.8 - - - - CALM 0 4 0 2 1008.2 - -
20/03:24am 27.8 - - - - CALM 0 - 0 - - 1008.1 -

Other Formats:

Comma delimited format used in spreadsheet applications
http://www.bom.gov.au/fwo/IDQ60801/IDQ60801.94290.axf

JavaScript Object Notation format (JSON) in row-major order
http://www.bom.gov.au/fwo/IDQ60801/IDQ60801.94290.json